sensor_id;sensor_type;location;lat;lon;timestamp;P1;durP1;ratioP1;P2;durP2;ratioP2
1775;SDS011;885;42.626;23.200;2022-12-19T00:01:06;21.83;;;13.13;;
1775;SDS011;885;42.626;23.200;2022-12-19T00:03:40;18.30;;;12.63;;
1775;SDS011;885;42.626;23.200;2022-12-19T00:06:08;24.53;;;13.17;;
1775;SDS011;885;42.626;23.200;2022-12-19T00:08:35;19.27;;;12.33;;
1775;SDS011;885;42.626;23.200;2022-12-19T00:11:02;17.93;;;12.90;;
1775;SDS011;885;42.626;23.200;2022-12-19T00:13:29;27.80;;;16.33;;
1775;SDS011;885;42.626;23.200;2022-12-19T00:15:59;18.40;;;12.87;;
1775;SDS011;885;42.626;23.200;2022-12-19T00:18:26;17.47;;;12.13;;
1775;SDS011;885;42.626;23.200;2022-12-19T00:20:53;20.20;;;13.47;;
1775;SDS011;885;42.626;23.200;2022-12-19T00:23:23;22.20;;;16.10;;
1775;SDS011;885;42.626;23.200;2022-12-19T00:25:49;25.20;;;14.67;;
1775;SDS011;885;42.626;23.200;2022-12-19T00:28:16;18.67;;;12.53;;
1775;SDS011;885;42.626;23.200;2022-12-19T00:30:43;22.63;;;14.47;;
1775;SDS011;885;42.626;23.200;2022-12-19T00:33:10;25.20;;;15.53;;
1775;SDS011;885;42.626;23.200;2022-12-19T00:35:36;18.20;;;12.93;;
1775;SDS011;885;42.626;23.200;2022-12-19T00:38:03;25.17;;;16.70;;
1775;SDS011;885;42.626;23.200;2022-12-19T00:40:31;20.87;;;13.03;;
1775;SDS011;885;42.626;23.200;2022-12-19T00:42:58;27.97;;;15.37;;
1775;SDS011;885;42.626;23.200;2022-12-19T00:45:25;21.93;;;14.73;;
1775;SDS011;885;42.626;23.200;2022-12-19T00:47:54;18.27;;;12.60;;
1775;SDS011;885;42.626;23.200;2022-12-19T00:50:21;19.67;;;12.13;;
1775;SDS011;885;42.626;23.200;2022-12-19T00:52:48;21.70;;;14.07;;
1775;SDS011;885;42.626;23.200;2022-12-19T00:55:14;21.00;;;15.13;;
1775;SDS011;885;42.626;23.200;2022-12-19T00:57:43;20.47;;;14.50;;
1775;SDS011;885;42.626;23.200;2022-12-19T01:00:10;23.43;;;14.13;;
1775;SDS011;885;42.626;23.200;2022-12-19T01:02:37;19.50;;;13.90;;
1775;SDS011;885;42.626;23.200;2022-12-19T01:05:05;24.50;;;14.50;;
1775;SDS011;885;42.626;23.200;2022-12-19T01:07:32;19.13;;;13.77;;
1775;SDS011;885;42.626;23.200;2022-12-19T01:10:00;25.90;;;14.80;;
1775;SDS011;885;42.626;23.200;2022-12-19T01:12:27;22.17;;;14.47;;
1775;SDS011;885;42.626;23.200;2022-12-19T01:15:14;19.27;;;12.97;;
1775;SDS011;885;42.626;23.200;2022-12-19T01:17:41;21.70;;;15.03;;
1775;SDS011;885;42.626;23.200;2022-12-19T01:20:08;20.77;;;14.70;;
1775;SDS011;885;42.626;23.200;2022-12-19T01:22:35;24.40;;;14.20;;
1775;SDS011;885;42.626;23.200;2022-12-19T01:25:02;20.57;;;14.37;;
1775;SDS011;885;42.626;23.200;2022-12-19T01:27:29;24.00;;;15.83;;
1775;SDS011;885;42.626;23.200;2022-12-19T01:29:56;21.90;;;14.60;;
1775;SDS011;885;42.626;23.200;2022-12-19T01:32:24;20.47;;;13.73;;
1775;SDS011;885;42.626;23.200;2022-12-19T01:34:51;21.33;;;13.10;;
1775;SDS011;885;42.626;23.200;2022-12-19T01:37:18;20.67;;;13.00;;
1775;SDS011;885;42.626;23.200;2022-12-19T01:39:48;20.77;;;15.10;;
1775;SDS011;885;42.626;23.200;2022-12-19T01:42:15;19.27;;;14.57;;
1775;SDS011;885;42.626;23.200;2022-12-19T01:45:02;24.67;;;15.23;;
1775;SDS011;885;42.626;23.200;2022-12-19T01:47:32;20.17;;;14.60;;
1775;SDS011;885;42.626;23.200;2022-12-19T01:50:01;24.57;;;15.70;;
1775;SDS011;885;42.626;23.200;2022-12-19T01:52:28;21.33;;;13.23;;
1775;SDS011;885;42.626;23.200;2022-12-19T01:54:56;21.10;;;14.37;;
1775;SDS011;885;42.626;23.200;2022-12-19T01:57:23;19.47;;;13.57;;
1775;SDS011;885;42.626;23.200;2022-12-19T01:59:51;21.07;;;13.57;;
1775;SDS011;885;42.626;23.200;2022-12-19T02:02:23;23.73;;;14.67;;
1775;SDS011;885;42.626;23.200;2022-12-19T02:04:55;23.87;;;15.80;;
1775;SDS011;885;42.626;23.200;2022-12-19T02:07:22;23.20;;;14.50;;
1775;SDS011;885;42.626;23.200;2022-12-19T02:09:52;21.10;;;14.47;;
1775;SDS011;885;42.626;23.200;2022-12-19T02:12:20;23.97;;;14.97;;
1775;SDS011;885;42.626;23.200;2022-12-19T02:14:48;20.47;;;14.97;;
1775;SDS011;885;42.626;23.200;2022-12-19T02:17:17;24.53;;;13.57;;
1775;SDS011;885;42.626;23.200;2022-12-19T02:22:58;19.70;;;12.80;;
1775;SDS011;885;42.626;23.200;2022-12-19T02:25:48;21.70;;;15.83;;
1775;SDS011;885;42.626;23.200;2022-12-19T02:28:31;22.17;;;14.70;;
1775;SDS011;885;42.626;23.200;2022-12-19T02:31:15;18.03;;;11.63;;
1775;SDS011;885;42.626;23.200;2022-12-19T02:33:47;21.60;;;14.20;;
1775;SDS011;885;42.626;23.200;2022-12-19T02:36:21;20.77;;;14.67;;
1775;SDS011;885;42.626;23.200;2022-12-19T02:38:56;28.73;;;14.10;;
1775;SDS011;885;42.626;23.200;2022-12-19T02:41:27;27.10;;;14.50;;
1775;SDS011;885;42.626;23.200;2022-12-19T02:44:07;17.57;;;12.67;;
1775;SDS011;885;42.626;23.200;2022-12-19T02:46:39;18.80;;;13.20;;
1775;SDS011;885;42.626;23.200;2022-12-19T02:49:08;17.43;;;12.27;;
1775;SDS011;885;42.626;23.200;2022-12-19T02:51:36;22.03;;;12.37;;
1775;SDS011;885;42.626;23.200;2022-12-19T02:54:03;18.87;;;14.27;;
1775;SDS011;885;42.626;23.200;2022-12-19T02:56:33;18.90;;;12.73;;
1775;SDS011;885;42.626;23.200;2022-12-19T02:59:17;18.60;;;12.40;;
1775;SDS011;885;42.626;23.200;2022-12-19T03:01:56;21.97;;;13.40;;
1775;SDS011;885;42.626;23.200;2022-12-19T03:04:32;18.37;;;14.47;;
1775;SDS011;885;42.626;23.200;2022-12-19T03:07:09;19.43;;;14.33;;
1775;SDS011;885;42.626;23.200;2022-12-19T03:09:44;24.20;;;14.60;;
1775;SDS011;885;42.626;23.200;2022-12-19T03:12:19;20.33;;;13.57;;
1775;SDS011;885;42.626;23.200;2022-12-19T03:14:52;25.80;;;14.70;;
1775;SDS011;885;42.626;23.200;2022-12-19T03:17:21;19.57;;;15.13;;
1775;SDS011;885;42.626;23.200;2022-12-19T03:19:48;20.87;;;12.27;;
1775;SDS011;885;42.626;23.200;2022-12-19T03:22:15;24.57;;;14.03;;
1775;SDS011;885;42.626;23.200;2022-12-19T03:24:42;21.57;;;13.90;;
1775;SDS011;885;42.626;23.200;2022-12-19T03:27:10;17.70;;;12.90;;
1775;SDS011;885;42.626;23.200;2022-12-19T03:29:44;20.67;;;13.33;;
1775;SDS011;885;42.626;23.200;2022-12-19T03:32:15;22.33;;;14.63;;
1775;SDS011;885;42.626;23.200;2022-12-19T03:34:46;24.13;;;14.07;;
1775;SDS011;885;42.626;23.200;2022-12-19T03:37:16;20.90;;;14.40;;
1775;SDS011;885;42.626;23.200;2022-12-19T03:39:45;18.23;;;13.57;;
1775;SDS011;885;42.626;23.200;2022-12-19T03:42:18;21.87;;;13.80;;
1775;SDS011;885;42.626;23.200;2022-12-19T03:45:05;20.63;;;13.37;;
1775;SDS011;885;42.626;23.200;2022-12-19T03:47:34;26.23;;;13.67;;
1775;SDS011;885;42.626;23.200;2022-12-19T03:50:06;24.37;;;14.57;;
1775;SDS011;885;42.626;23.200;2022-12-19T03:52:34;18.17;;;12.90;;
1775;SDS011;885;42.626;23.200;2022-12-19T03:55:08;19.20;;;12.30;;
1775;SDS011;885;42.626;23.200;2022-12-19T03:57:42;20.30;;;13.00;;
1775;SDS011;885;42.626;23.200;2022-12-19T04:00:15;22.13;;;12.70;;
1775;SDS011;885;42.626;23.200;2022-12-19T04:02:45;21.60;;;14.80;;
1775;SDS011;885;42.626;23.200;2022-12-19T04:05:17;19.43;;;12.90;;
1775;SDS011;885;42.626;23.200;2022-12-19T04:07:46;14.40;;;11.43;;
1775;SDS011;885;42.626;23.200;2022-12-19T04:10:16;21.13;;;12.13;;
1775;SDS011;885;42.626;23.200;2022-12-19T04:12:46;21.47;;;11.50;;
1775;SDS011;885;42.626;23.200;2022-12-19T04:15:16;20.43;;;12.43;;
1775;SDS011;885;42.626;23.200;2022-12-19T04:17:47;18.53;;;13.20;;
1775;SDS011;885;42.626;23.200;2022-12-19T04:20:18;22.90;;;13.23;;
1775;SDS011;885;42.626;23.200;2022-12-19T04:22:50;19.80;;;12.33;;
1775;SDS011;885;42.626;23.200;2022-12-19T04:25:21;17.97;;;12.90;;
1775;SDS011;885;42.626;23.200;2022-12-19T04:27:51;17.67;;;12.37;;
1775;SDS011;885;42.626;23.200;2022-12-19T04:30:22;20.53;;;14.47;;
1775;SDS011;885;42.626;23.200;2022-12-19T04:32:49;20.77;;;12.27;;
1775;SDS011;885;42.626;23.200;2022-12-19T04:35:18;19.77;;;13.97;;
1775;SDS011;885;42.626;23.200;2022-12-19T04:37:45;23.40;;;14.30;;
1775;SDS011;885;42.626;23.200;2022-12-19T04:40:12;20.03;;;13.20;;
1775;SDS011;885;42.626;23.200;2022-12-19T04:42:39;28.07;;;17.97;;
1775;SDS011;885;42.626;23.200;2022-12-19T04:45:08;20.37;;;13.50;;
1775;SDS011;885;42.626;23.200;2022-12-19T04:47:35;22.47;;;14.20;;
1775;SDS011;885;42.626;23.200;2022-12-19T04:50:02;20.50;;;13.10;;
1775;SDS011;885;42.626;23.200;2022-12-19T04:52:31;20.70;;;13.03;;
1775;SDS011;885;42.626;23.200;2022-12-19T04:54:58;20.93;;;13.33;;
1775;SDS011;885;42.626;23.200;2022-12-19T04:57:27;21.03;;;14.67;;
1775;SDS011;885;42.626;23.200;2022-12-19T04:59:54;20.83;;;12.67;;
1775;SDS011;885;42.626;23.200;2022-12-19T05:02:21;19.17;;;13.30;;
1775;SDS011;885;42.626;23.200;2022-12-19T05:04:48;15.50;;;10.50;;
1775;SDS011;885;42.626;23.200;2022-12-19T05:07:15;22.53;;;14.20;;
1775;SDS011;885;42.626;23.200;2022-12-19T05:09:43;19.57;;;12.40;;
1775;SDS011;885;42.626;23.200;2022-12-19T05:12:10;18.10;;;12.83;;
1775;SDS011;885;42.626;23.200;2022-12-19T05:14:36;19.47;;;13.70;;
1775;SDS011;885;42.626;23.200;2022-12-19T05:17:03;23.30;;;14.27;;
1775;SDS011;885;42.626;23.200;2022-12-19T05:19:30;22.07;;;13.63;;
1775;SDS011;885;42.626;23.200;2022-12-19T05:21:57;22.20;;;13.10;;
1775;SDS011;885;42.626;23.200;2022-12-19T05:24:23;22.37;;;13.80;;
1775;SDS011;885;42.626;23.200;2022-12-19T05:26:52;24.97;;;15.33;;
1775;SDS011;885;42.626;23.200;2022-12-19T05:29:19;23.27;;;13.40;;
1775;SDS011;885;42.626;23.200;2022-12-19T05:31:45;24.20;;;13.93;;
1775;SDS011;885;42.626;23.200;2022-12-19T05:34:12;19.07;;;13.23;;
1775;SDS011;885;42.626;23.200;2022-12-19T05:36:39;26.40;;;13.53;;
1775;SDS011;885;42.626;23.200;2022-12-19T05:39:06;21.23;;;13.10;;
1775;SDS011;885;42.626;23.200;2022-12-19T05:41:33;23.30;;;13.40;;
1775;SDS011;885;42.626;23.200;2022-12-19T05:44:01;20.90;;;14.17;;
1775;SDS011;885;42.626;23.200;2022-12-19T05:46:28;21.93;;;13.90;;
1775;SDS011;885;42.626;23.200;2022-12-19T05:48:55;23.13;;;14.10;;
1775;SDS011;885;42.626;23.200;2022-12-19T05:51:23;17.57;;;13.40;;
1775;SDS011;885;42.626;23.200;2022-12-19T05:53:50;17.87;;;12.53;;
1775;SDS011;885;42.626;23.200;2022-12-19T05:56:17;18.60;;;13.67;;
1775;SDS011;885;42.626;23.200;2022-12-19T05:58:46;19.13;;;12.73;;
1775;SDS011;885;42.626;23.200;2022-12-19T06:01:15;18.73;;;12.87;;
1775;SDS011;885;42.626;23.200;2022-12-19T06:03:43;21.00;;;13.30;;
1775;SDS011;885;42.626;23.200;2022-12-19T06:06:11;23.70;;;14.90;;
1775;SDS011;885;42.626;23.200;2022-12-19T06:08:39;24.10;;;14.57;;
1775;SDS011;885;42.626;23.200;2022-12-19T06:11:07;22.10;;;13.80;;
1775;SDS011;885;42.626;23.200;2022-12-19T06:13:35;23.10;;;14.47;;
1775;SDS011;885;42.626;23.200;2022-12-19T06:16:03;19.93;;;12.40;;
1775;SDS011;885;42.626;23.200;2022-12-19T06:18:33;31.40;;;17.97;;
1775;SDS011;885;42.626;23.200;2022-12-19T06:21:01;19.60;;;13.40;;
1775;SDS011;885;42.626;23.200;2022-12-19T06:23:30;18.23;;;12.70;;
1775;SDS011;885;42.626;23.200;2022-12-19T06:26:00;17.87;;;12.30;;
1775;SDS011;885;42.626;23.200;2022-12-19T06:28:28;18.37;;;13.00;;
1775;SDS011;885;42.626;23.200;2022-12-19T06:30:56;18.10;;;12.13;;
1775;SDS011;885;42.626;23.200;2022-12-19T06:33:23;20.97;;;13.47;;
1775;SDS011;885;42.626;23.200;2022-12-19T06:35:57;17.87;;;12.13;;
1775;SDS011;885;42.626;23.200;2022-12-19T06:38:25;24.37;;;14.33;;
1775;SDS011;885;42.626;23.200;2022-12-19T06:40:52;19.90;;;12.47;;
1775;SDS011;885;42.626;23.200;2022-12-19T06:43:36;16.67;;;13.40;;
1775;SDS011;885;42.626;23.200;2022-12-19T06:46:03;20.23;;;11.93;;
1775;SDS011;885;42.626;23.200;2022-12-19T06:48:30;19.90;;;11.70;;
1775;SDS011;885;42.626;23.200;2022-12-19T06:50:58;16.33;;;11.40;;
1775;SDS011;885;42.626;23.200;2022-12-19T06:53:24;19.87;;;13.20;;
1775;SDS011;885;42.626;23.200;2022-12-19T06:55:52;20.30;;;13.40;;
1775;SDS011;885;42.626;23.200;2022-12-19T06:58:20;20.27;;;13.67;;
1775;SDS011;885;42.626;23.200;2022-12-19T07:00:47;20.27;;;13.30;;
1775;SDS011;885;42.626;23.200;2022-12-19T07:03:15;21.97;;;12.63;;
1775;SDS011;885;42.626;23.200;2022-12-19T07:05:44;20.77;;;13.00;;
1775;SDS011;885;42.626;23.200;2022-12-19T07:08:13;23.60;;;13.17;;
1775;SDS011;885;42.626;23.200;2022-12-19T07:10:40;17.13;;;12.97;;
1775;SDS011;885;42.626;23.200;2022-12-19T07:13:07;22.30;;;14.07;;
1775;SDS011;885;42.626;23.200;2022-12-19T07:15:34;21.73;;;14.30;;
1775;SDS011;885;42.626;23.200;2022-12-19T07:18:02;19.70;;;14.00;;
1775;SDS011;885;42.626;23.200;2022-12-19T07:20:31;23.20;;;16.20;;
1775;SDS011;885;42.626;23.200;2022-12-19T07:23:00;21.13;;;15.60;;
1775;SDS011;885;42.626;23.200;2022-12-19T07:25:31;24.33;;;16.10;;
1775;SDS011;885;42.626;23.200;2022-12-19T07:27:57;22.87;;;16.83;;
1775;SDS011;885;42.626;23.200;2022-12-19T07:30:24;22.40;;;16.43;;
1775;SDS011;885;42.626;23.200;2022-12-19T07:32:51;20.10;;;14.50;;
1775;SDS011;885;42.626;23.200;2022-12-19T07:35:18;22.70;;;16.10;;
1775;SDS011;885;42.626;23.200;2022-12-19T07:37:46;21.63;;;16.13;;
1775;SDS011;885;42.626;23.200;2022-12-19T07:40:13;27.37;;;18.77;;
1775;SDS011;885;42.626;23.200;2022-12-19T07:42:41;21.67;;;17.43;;
1775;SDS011;885;42.626;23.200;2022-12-19T07:45:08;25.97;;;16.03;;
1775;SDS011;885;42.626;23.200;2022-12-19T07:47:35;20.47;;;16.70;;
1775;SDS011;885;42.626;23.200;2022-12-19T07:50:02;23.73;;;17.10;;
1775;SDS011;885;42.626;23.200;2022-12-19T07:52:29;21.67;;;16.13;;
1775;SDS011;885;42.626;23.200;2022-12-19T07:54:56;23.90;;;17.60;;
1775;SDS011;885;42.626;23.200;2022-12-19T07:57:23;26.67;;;16.77;;
1775;SDS011;885;42.626;23.200;2022-12-19T07:59:51;23.93;;;16.43;;
1775;SDS011;885;42.626;23.200;2022-12-19T08:02:18;22.80;;;17.20;;
1775;SDS011;885;42.626;23.200;2022-12-19T08:04:44;25.67;;;18.47;;
1775;SDS011;885;42.626;23.200;2022-12-19T08:07:11;32.67;;;17.57;;
1775;SDS011;885;42.626;23.200;2022-12-19T08:09:38;30.20;;;18.20;;
1775;SDS011;885;42.626;23.200;2022-12-19T08:12:05;29.97;;;21.13;;
1775;SDS011;885;42.626;23.200;2022-12-19T08:14:32;34.23;;;22.90;;
1775;SDS011;885;42.626;23.200;2022-12-19T08:17:00;31.57;;;18.53;;
1775;SDS011;885;42.626;23.200;2022-12-19T08:19:27;30.10;;;19.80;;
1775;SDS011;885;42.626;23.200;2022-12-19T08:21:53;26.00;;;18.70;;
1775;SDS011;885;42.626;23.200;2022-12-19T08:24:20;32.40;;;21.90;;
1775;SDS011;885;42.626;23.200;2022-12-19T08:26:47;36.03;;;21.67;;
1775;SDS011;885;42.626;23.200;2022-12-19T08:29:14;35.57;;;17.63;;
1775;SDS011;885;42.626;23.200;2022-12-19T08:31:40;30.03;;;19.20;;
1775;SDS011;885;42.626;23.200;2022-12-19T08:34:09;31.10;;;19.63;;
1775;SDS011;885;42.626;23.200;2022-12-19T08:36:36;29.50;;;20.70;;
1775;SDS011;885;42.626;23.200;2022-12-19T08:39:08;32.27;;;21.57;;
1775;SDS011;885;42.626;23.200;2022-12-19T08:41:38;30.60;;;22.13;;
1775;SDS011;885;42.626;23.200;2022-12-19T08:44:05;33.80;;;22.30;;
1775;SDS011;885;42.626;23.200;2022-12-19T08:46:32;36.57;;;23.87;;
1775;SDS011;885;42.626;23.200;2022-12-19T08:49:01;30.77;;;21.13;;
1775;SDS011;885;42.626;23.200;2022-12-19T08:51:32;32.37;;;20.90;;
1775;SDS011;885;42.626;23.200;2022-12-19T08:53:59;33.30;;;23.13;;
1775;SDS011;885;42.626;23.200;2022-12-19T08:56:26;35.03;;;22.40;;
1775;SDS011;885;42.626;23.200;2022-12-19T08:58:53;42.47;;;26.30;;
1775;SDS011;885;42.626;23.200;2022-12-19T09:01:20;43.90;;;24.83;;
1775;SDS011;885;42.626;23.200;2022-12-19T09:03:48;31.77;;;22.23;;
1775;SDS011;885;42.626;23.200;2022-12-19T09:06:16;33.30;;;22.33;;
1775;SDS011;885;42.626;23.200;2022-12-19T09:08:44;35.70;;;22.50;;
1775;SDS011;885;42.626;23.200;2022-12-19T09:11:12;37.00;;;22.37;;
1775;SDS011;885;42.626;23.200;2022-12-19T09:13:40;35.90;;;22.50;;
1775;SDS011;885;42.626;23.200;2022-12-19T09:16:10;37.27;;;23.83;;
1775;SDS011;885;42.626;23.200;2022-12-19T09:18:38;38.93;;;24.10;;
1775;SDS011;885;42.626;23.200;2022-12-19T09:21:06;36.13;;;23.23;;
1775;SDS011;885;42.626;23.200;2022-12-19T09:23:33;43.50;;;26.37;;
1775;SDS011;885;42.626;23.200;2022-12-19T09:26:03;34.77;;;25.30;;
1775;SDS011;885;42.626;23.200;2022-12-19T09:28:31;37.57;;;23.57;;
1775;SDS011;885;42.626;23.200;2022-12-19T09:30:59;34.43;;;23.60;;
1775;SDS011;885;42.626;23.200;2022-12-19T09:33:27;39.03;;;24.73;;
1775;SDS011;885;42.626;23.200;2022-12-19T09:35:56;35.83;;;26.37;;
1775;SDS011;885;42.626;23.200;2022-12-19T09:38:24;36.80;;;24.70;;
1775;SDS011;885;42.626;23.200;2022-12-19T09:40:58;47.60;;;28.30;;
1775;SDS011;885;42.626;23.200;2022-12-19T09:43:41;34.10;;;23.67;;
1775;SDS011;885;42.626;23.200;2022-12-19T09:46:17;37.10;;;25.47;;
1775;SDS011;885;42.626;23.200;2022-12-19T09:48:45;38.77;;;26.23;;
1775;SDS011;885;42.626;23.200;2022-12-19T09:51:15;39.50;;;26.23;;
1775;SDS011;885;42.626;23.200;2022-12-19T09:53:54;36.73;;;25.07;;
1775;SDS011;885;42.626;23.200;2022-12-19T09:56:31;42.87;;;26.13;;
1775;SDS011;885;42.626;23.200;2022-12-19T09:59:07;34.03;;;22.63;;
1775;SDS011;885;42.626;23.200;2022-12-19T10:01:44;40.73;;;28.00;;
1775;SDS011;885;42.626;23.200;2022-12-19T10:04:19;36.97;;;26.50;;
1775;SDS011;885;42.626;23.200;2022-12-19T10:06:50;34.33;;;24.03;;
1775;SDS011;885;42.626;23.200;2022-12-19T10:09:18;35.87;;;24.43;;
1775;SDS011;885;42.626;23.200;2022-12-19T10:11:54;35.30;;;23.53;;
1775;SDS011;885;42.626;23.200;2022-12-19T10:14:37;33.80;;;22.60;;
1775;SDS011;885;42.626;23.200;2022-12-19T10:17:16;38.47;;;23.23;;
1775;SDS011;885;42.626;23.200;2022-12-19T10:22:48;29.07;;;20.67;;
1775;SDS011;885;42.626;23.200;2022-12-19T10:25:26;33.53;;;20.67;;
1775;SDS011;885;42.626;23.200;2022-12-19T10:28:03;36.23;;;21.60;;
1775;SDS011;885;42.626;23.200;2022-12-19T10:30:38;35.37;;;24.40;;
1775;SDS011;885;42.626;23.200;2022-12-19T10:33:12;32.33;;;21.33;;
1775;SDS011;885;42.626;23.200;2022-12-19T10:35:43;31.93;;;21.50;;
1775;SDS011;885;42.626;23.200;2022-12-19T10:38:17;29.47;;;19.77;;
1775;SDS011;885;42.626;23.200;2022-12-19T10:40:49;27.97;;;20.60;;
1775;SDS011;885;42.626;23.200;2022-12-19T10:43:22;39.83;;;21.43;;
1775;SDS011;885;42.626;23.200;2022-12-19T10:45:56;33.67;;;21.00;;
1775;SDS011;885;42.626;23.200;2022-12-19T10:48:26;25.10;;;18.73;;
1775;SDS011;885;42.626;23.200;2022-12-19T10:50:54;38.83;;;23.13;;
1775;SDS011;885;42.626;23.200;2022-12-19T10:53:24;28.00;;;17.60;;
1775;SDS011;885;42.626;23.200;2022-12-19T10:55:53;30.87;;;19.20;;
1775;SDS011;885;42.626;23.200;2022-12-19T10:58:31;28.73;;;19.10;;
1775;SDS011;885;42.626;23.200;2022-12-19T11:01:03;38.47;;;19.60;;
1775;SDS011;885;42.626;23.200;2022-12-19T11:03:38;33.83;;;20.43;;
1775;SDS011;885;42.626;23.200;2022-12-19T11:06:35;35.20;;;22.87;;
1775;SDS011;885;42.626;23.200;2022-12-19T11:09:15;29.00;;;19.60;;
1775;SDS011;885;42.626;23.200;2022-12-19T11:12:00;32.60;;;19.67;;
1775;SDS011;885;42.626;23.200;2022-12-19T11:14:38;29.97;;;18.87;;
1775;SDS011;885;42.626;23.200;2022-12-19T11:17:21;35.40;;;22.53;;
1775;SDS011;885;42.626;23.200;2022-12-19T11:19:50;31.13;;;22.53;;
1775;SDS011;885;42.626;23.200;2022-12-19T11:22:18;32.27;;;19.00;;
1775;SDS011;885;42.626;23.200;2022-12-19T11:24:48;32.07;;;20.47;;
1775;SDS011;885;42.626;23.200;2022-12-19T11:27:31;33.83;;;19.23;;
1775;SDS011;885;42.626;23.200;2022-12-19T11:30:07;33.30;;;22.00;;
1775;SDS011;885;42.626;23.200;2022-12-19T11:32:46;35.97;;;22.90;;
1775;SDS011;885;42.626;23.200;2022-12-19T11:35:15;33.10;;;22.57;;
1775;SDS011;885;42.626;23.200;2022-12-19T11:37:45;34.27;;;22.37;;
1775;SDS011;885;42.626;23.200;2022-12-19T11:40:19;32.00;;;24.40;;
1775;SDS011;885;42.626;23.200;2022-12-19T11:42:50;36.30;;;23.73;;
1775;SDS011;885;42.626;23.200;2022-12-19T11:45:27;33.00;;;21.30;;
1775;SDS011;885;42.626;23.200;2022-12-19T11:48:07;32.70;;;23.13;;
1775;SDS011;885;42.626;23.200;2022-12-19T11:50:42;38.57;;;23.40;;
1775;SDS011;885;42.626;23.200;2022-12-19T11:53:26;38.00;;;25.13;;
1775;SDS011;885;42.626;23.200;2022-12-19T11:55:59;39.43;;;27.17;;
1775;SDS011;885;42.626;23.200;2022-12-19T11:58:31;35.20;;;24.47;;
1775;SDS011;885;42.626;23.200;2022-12-19T12:01:01;33.83;;;24.40;;
1775;SDS011;885;42.626;23.200;2022-12-19T12:03:41;33.97;;;23.40;;
1775;SDS011;885;42.626;23.200;2022-12-19T12:06:15;36.90;;;22.90;;
1775;SDS011;885;42.626;23.200;2022-12-19T12:08:51;36.97;;;24.60;;
1775;SDS011;885;42.626;23.200;2022-12-19T12:11:25;33.53;;;23.90;;
1775;SDS011;885;42.626;23.200;2022-12-19T12:14:11;41.10;;;24.70;;
1775;SDS011;885;42.626;23.200;2022-12-19T12:16:46;38.40;;;25.47;;
1775;SDS011;885;42.626;23.200;2022-12-19T12:19:30;40.37;;;23.43;;
1775;SDS011;885;42.626;23.200;2022-12-19T12:22:11;36.10;;;24.33;;
1775;SDS011;885;42.626;23.200;2022-12-19T12:24:47;34.13;;;21.77;;
1775;SDS011;885;42.626;23.200;2022-12-19T12:27:26;34.30;;;24.63;;
1775;SDS011;885;42.626;23.200;2022-12-19T12:30:01;34.47;;;22.00;;
1775;SDS011;885;42.626;23.200;2022-12-19T12:32:40;30.80;;;22.00;;
1775;SDS011;885;42.626;23.200;2022-12-19T12:35:21;37.27;;;22.50;;
1775;SDS011;885;42.626;23.200;2022-12-19T12:37:56;32.87;;;21.80;;
1775;SDS011;885;42.626;23.200;2022-12-19T12:40:41;31.50;;;19.47;;
1775;SDS011;885;42.626;23.200;2022-12-19T12:43:21;28.17;;;18.80;;
1775;SDS011;885;42.626;23.200;2022-12-19T12:46:00;28.27;;;17.73;;
1775;SDS011;885;42.626;23.200;2022-12-19T12:48:30;26.03;;;16.53;;
1775;SDS011;885;42.626;23.200;2022-12-19T12:51:01;25.30;;;18.50;;
1775;SDS011;885;42.626;23.200;2022-12-19T12:53:32;30.53;;;16.30;;
1775;SDS011;885;42.626;23.200;2022-12-19T12:56:03;21.43;;;15.87;;
1775;SDS011;885;42.626;23.200;2022-12-19T12:58:40;31.50;;;18.23;;
1775;SDS011;885;42.626;23.200;2022-12-19T13:01:09;26.13;;;17.63;;
1775;SDS011;885;42.626;23.200;2022-12-19T13:03:40;22.80;;;14.57;;
1775;SDS011;885;42.626;23.200;2022-12-19T13:06:20;23.10;;;16.07;;
1775;SDS011;885;42.626;23.200;2022-12-19T13:08:51;27.33;;;16.50;;
1775;SDS011;885;42.626;23.200;2022-12-19T13:11:37;20.33;;;14.23;;
1775;SDS011;885;42.626;23.200;2022-12-19T13:14:42;20.40;;;13.87;;
1775;SDS011;885;42.626;23.200;2022-12-19T13:17:11;20.93;;;15.00;;
1775;SDS011;885;42.626;23.200;2022-12-19T13:19:52;20.43;;;14.27;;
1775;SDS011;885;42.626;23.200;2022-12-19T13:22:22;20.17;;;14.00;;
1775;SDS011;885;42.626;23.200;2022-12-19T13:25:10;20.77;;;13.60;;
1775;SDS011;885;42.626;23.200;2022-12-19T13:28:39;21.83;;;13.10;;
1775;SDS011;885;42.626;23.200;2022-12-19T13:31:16;21.73;;;13.83;;
1775;SDS011;885;42.626;23.200;2022-12-19T13:33:45;23.30;;;16.80;;
1775;SDS011;885;42.626;23.200;2022-12-19T13:39:56;25.97;;;15.70;;
1775;SDS011;885;42.626;23.200;2022-12-19T13:42:31;19.67;;;12.50;;
1775;SDS011;885;42.626;23.200;2022-12-19T13:45:23;20.43;;;12.17;;
1775;SDS011;885;42.626;23.200;2022-12-19T13:47:53;15.93;;;12.97;;
1775;SDS011;885;42.626;23.200;2022-12-19T13:50:24;18.23;;;12.33;;
1775;SDS011;885;42.626;23.200;2022-12-19T13:52:55;18.73;;;13.30;;
1775;SDS011;885;42.626;23.200;2022-12-19T13:55:22;26.50;;;20.03;;
1775;SDS011;885;42.626;23.200;2022-12-19T13:57:50;17.27;;;13.47;;
1775;SDS011;885;42.626;23.200;2022-12-19T14:00:31;19.13;;;14.57;;
1775;SDS011;885;42.626;23.200;2022-12-19T14:03:01;20.70;;;13.57;;
1775;SDS011;885;42.626;23.200;2022-12-19T14:05:29;17.03;;;12.97;;
1775;SDS011;885;42.626;23.200;2022-12-19T14:07:59;16.10;;;12.93;;
1775;SDS011;885;42.626;23.200;2022-12-19T14:10:29;13.73;;;10.60;;
1775;SDS011;885;42.626;23.200;2022-12-19T14:12:59;15.77;;;11.73;;
1775;SDS011;885;42.626;23.200;2022-12-19T14:15:49;21.27;;;13.80;;
1775;SDS011;885;42.626;23.200;2022-12-19T14:18:17;21.00;;;13.60;;
1775;SDS011;885;42.626;23.200;2022-12-19T14:20:45;16.93;;;11.03;;
1775;SDS011;885;42.626;23.200;2022-12-19T14:23:14;17.73;;;14.17;;
1775;SDS011;885;42.626;23.200;2022-12-19T14:25:41;19.43;;;14.27;;
1775;SDS011;885;42.626;23.200;2022-12-19T14:28:13;21.77;;;16.50;;
1775;SDS011;885;42.626;23.200;2022-12-19T14:30:44;19.33;;;13.00;;
1775;SDS011;885;42.626;23.200;2022-12-19T14:33:15;16.30;;;12.37;;
1775;SDS011;885;42.626;23.200;2022-12-19T14:35:45;16.97;;;13.83;;
1775;SDS011;885;42.626;23.200;2022-12-19T14:38:16;18.40;;;14.17;;
1775;SDS011;885;42.626;23.200;2022-12-19T14:40:46;22.80;;;14.10;;
1775;SDS011;885;42.626;23.200;2022-12-19T14:43:14;23.53;;;16.03;;
1775;SDS011;885;42.626;23.200;2022-12-19T14:46:10;18.80;;;13.93;;
1775;SDS011;885;42.626;23.200;2022-12-19T14:48:45;20.57;;;13.07;;
1775;SDS011;885;42.626;23.200;2022-12-19T14:51:18;17.67;;;14.70;;
1775;SDS011;885;42.626;23.200;2022-12-19T14:54:14;20.70;;;13.13;;
1775;SDS011;885;42.626;23.200;2022-12-19T14:56:44;24.77;;;15.17;;
1775;SDS011;885;42.626;23.200;2022-12-19T14:59:26;19.50;;;14.43;;
1775;SDS011;885;42.626;23.200;2022-12-19T15:01:57;37.77;;;18.40;;
1775;SDS011;885;42.626;23.200;2022-12-19T15:04:29;29.13;;;16.77;;
1775;SDS011;885;42.626;23.200;2022-12-19T15:06:58;32.00;;;17.70;;
1775;SDS011;885;42.626;23.200;2022-12-19T15:09:30;19.57;;;15.80;;
1775;SDS011;885;42.626;23.200;2022-12-19T15:12:02;28.90;;;17.90;;
1775;SDS011;885;42.626;23.200;2022-12-19T15:15:00;25.80;;;16.30;;
1775;SDS011;885;42.626;23.200;2022-12-19T15:17:31;23.80;;;15.90;;
1775;SDS011;885;42.626;23.200;2022-12-19T15:20:09;23.83;;;20.77;;
1775;SDS011;885;42.626;23.200;2022-12-19T15:22:36;24.40;;;19.30;;